Time;durP1;ratioP1;P1;durP2;ratioP2;P2;SDS_P1;SDS_P2;PMS_P1;PMS_P2;Temp;Humidity;BMP_temperature;BMP_pressure;BME280_temperature;BME280_humidity;BME280_pressure;Samples;Min_cycle;Max_cycle;Signal;HPM_P1;HPM_P2
2023/05/01 00:02:01;;;;;;;2.90;2.00;;;;;;;11.19;100.00;99076.75;5132663;27;20188;-75
2023/05/01 00:04:28;;;;;;;2.70;2.00;;;;;;;11.09;100.00;99079.19;5132351;27;20228;-75
2023/05/01 00:06:56;;;;;;;3.50;2.17;;;;;;;11.12;100.00;99078.16;5132182;27;20236;-75
2023/05/01 00:09:23;;;;;;;3.90;2.53;;;;;;;11.01;100.00;99076.41;5132097;27;20223;-76
2023/05/01 00:11:50;;;;;;;3.73;2.37;;;;;;;10.96;100.00;99069.03;5132078;27;20220;-75
2023/05/01 00:14:17;;;;;;;3.93;2.63;;;;;;;10.98;100.00;99074.06;5132496;27;20223;-75
2023/05/01 00:16:46;;;;;;;3.83;2.40;;;;;;;11.01;100.00;99066.97;5131956;27;20193;-75
2023/05/01 00:19:17;;;;;;;3.17;1.93;;;;;;;11.00;100.00;99062.78;5131852;27;20212;-76
2023/05/01 00:21:44;;;;;;;4.57;2.30;;;;;;;11.00;100.00;99060.22;5131726;27;20246;-75
2023/05/01 00:24:11;;;;;;;3.47;2.37;;;;;;;11.01;100.00;99056.75;5131744;27;20320;-75
2023/05/01 00:26:38;;;;;;;3.30;2.47;;;;;;;10.91;100.00;99060.91;5131606;27;20225;-75
2023/05/01 00:29:05;;;;;;;4.60;2.60;;;;;;;10.86;100.00;99057.88;5131529;27;20279;-76
2023/05/01 00:31:31;;;;;;;3.80;2.63;;;;;;;10.85;100.00;99058.81;5131895;27;20265;-75
2023/05/01 00:34:00;;;;;;;5.13;2.20;;;;;;;10.83;100.00;99070.91;5131884;27;20655;-76
2023/05/01 00:36:26;;;;;;;6.00;2.30;;;;;;;10.78;100.00;99066.09;5131523;27;20197;-75
2023/05/01 00:38:53;;;;;;;4.67;2.50;;;;;;;10.85;100.00;99076.72;5131855;27;20204;-75
2023/05/01 00:41:20;;;;;;;5.43;2.13;;;;;;;10.80;100.00;99076.25;5131608;27;20306;-75
2023/05/01 00:43:47;;;;;;;2.73;2.10;;;;;;;10.35;100.00;99073.50;5131682;27;20207;-75
2023/05/01 00:46:14;;;;;;;3.23;2.20;;;;;;;10.22;100.00;99073.56;5131007;27;20224;-75
2023/05/01 00:48:40;;;;;;;2.97;1.97;;;;;;;10.29;100.00;99073.94;5131670;27;20720;-76
2023/05/01 00:51:10;;;;;;;4.10;2.47;;;;;;;10.38;100.00;99075.84;5131278;27;20241;-76
2023/05/01 00:53:37;;;;;;;3.70;2.30;;;;;;;10.48;100.00;99084.50;5131640;27;20192;-75
2023/05/01 00:56:04;;;;;;;2.73;2.10;;;;;;;10.60;100.00;99078.50;5131092;27;20220;-76
2023/05/01 00:58:31;;;;;;;5.33;2.70;;;;;;;10.60;100.00;99077.69;5131560;27;20263;-75
2023/05/01 01:00:58;;;;;;;3.93;2.07;;;;;;;10.57;100.00;99083.84;5131089;27;20216;-75
2023/05/01 01:03:25;;;;;;;2.17;1.70;;;;;;;10.82;100.00;99082.03;5131103;27;20212;-76
2023/05/01 01:05:57;;;;;;;4.13;1.93;;;;;;;10.91;100.00;99091.63;5131203;27;20277;-75
2023/05/01 01:08:30;;;;;;;5.43;2.30;;;;;;;10.81;100.00;99090.66;5131258;27;20269;-75
2023/05/01 01:11:10;;;;;;;3.63;2.17;;;;;;;10.78;100.00;99095.97;5131380;27;20224;-76
2023/05/01 01:13:43;;;;;;;3.10;2.13;;;;;;;10.79;100.00;99101.00;5131012;27;20211;-75
2023/05/01 01:16:17;;;;;;;3.57;2.17;;;;;;;10.68;100.00;99100.97;5130919;27;20260;-75
2023/05/01 01:18:50;;;;;;;3.23;2.20;;;;;;;10.79;100.00;99102.72;5131092;27;20192;-75
2023/05/01 01:21:24;;;;;;;4.57;2.73;;;;;;;10.93;100.00;99105.09;5130998;27;20208;-76
2023/05/01 01:24:17;;;;;;;3.70;2.13;;;;;;;10.92;100.00;99103.47;5131138;27;20192;-76
2023/05/01 01:27:02;;;;;;;3.53;2.00;;;;;;;10.91;100.00;99109.53;5130651;27;20232;-76
2023/05/01 01:29:43;;;;;;;3.90;1.80;;;;;;;10.88;100.00;99104.63;5130746;28;20216;-76
2023/05/01 01:32:32;;;;;;;2.93;1.87;;;;;;;10.90;100.00;99104.50;5131287;28;20215;-76
2023/05/01 01:35:04;;;;;;;4.43;2.27;;;;;;;10.78;100.00;99109.59;5130976;28;20285;-76
2023/05/01 01:37:41;;;;;;;3.53;2.30;;;;;;;10.67;100.00;99099.31;5131001;28;20192;-75
2023/05/01 01:40:14;;;;;;;2.77;1.87;;;;;;;10.77;100.00;99096.94;5130757;27;20211;-75
2023/05/01 01:42:46;;;;;;;3.63;2.23;;;;;;;10.67;100.00;99093.38;5135169;27;20207;-75
2023/05/01 01:45:18;;;;;;;1.60;1.43;;;;;;;10.67;100.00;99104.44;5134833;27;20215;-76
2023/05/01 01:47:48;;;;;;;5.17;1.80;;;;;;;10.71;100.00;99105.03;5134794;27;20688;-75
2023/05/01 01:50:18;;;;;;;2.33;1.60;;;;;;;10.84;100.00;99116.00;5134978;27;20224;-75
2023/05/01 01:52:49;;;;;;;1.97;1.67;;;;;;;10.94;100.00;99116.97;5135171;27;20193;-75
2023/05/01 01:55:21;;;;;;;4.07;1.80;;;;;;;10.92;100.00;99131.59;5134510;27;20213;-76
2023/05/01 01:57:50;;;;;;;2.00;1.63;;;;;;;10.92;100.00;99149.50;5134884;27;20636;-75
2023/05/01 02:00:19;;;;;;;5.70;2.37;;;;;;;10.48;100.00;99163.75;5135131;27;20208;-76
2023/05/01 02:02:47;;;;;;;3.10;2.07;;;;;;;10.37;100.00;99153.47;5134694;27;20667;-76
2023/05/01 02:05:19;;;;;;;1.73;1.63;;;;;;;10.36;100.00;99151.84;5134709;27;20285;-76
2023/05/01 02:07:49;;;;;;;5.43;1.90;;;;;;;10.50;100.00;99156.78;5134537;27;20232;-76
2023/05/01 02:10:16;;;;;;;3.90;2.27;;;;;;;10.47;100.00;99159.56;5134645;27;20348;-75
2023/05/01 02:12:45;;;;;;;2.50;1.97;;;;;;;10.56;100.00;99163.19;5134546;27;20562;-75
2023/05/01 02:15:13;;;;;;;2.43;1.80;;;;;;;10.59;100.00;99165.56;5134185;27;20221;-75
2023/05/01 02:17:41;;;;;;;2.30;1.77;;;;;;;10.32;100.00;99155.50;5134449;27;20265;-75
2023/05/01 02:20:11;;;;;;;3.57;1.93;;;;;;;10.28;100.00;99164.31;5134423;27;20223;-75
2023/05/01 02:22:40;;;;;;;4.47;2.77;;;;;;;10.36;100.00;99167.16;5134162;27;20200;-76
2023/05/01 02:25:10;;;;;;;2.63;1.60;;;;;;;10.40;100.00;99166.00;5134080;27;20225;-75
2023/05/01 02:27:40;;;;;;;4.50;2.30;;;;;;;10.51;100.00;99171.19;5134333;27;20621;-75
2023/05/01 02:30:08;;;;;;;6.00;2.60;;;;;;;10.36;100.00;99167.16;5134299;27;20224;-75
2023/05/01 02:32:35;;;;;;;3.93;2.27;;;;;;;10.55;100.00;99167.47;5134058;27;20196;-76
2023/05/01 02:35:02;;;;;;;3.50;2.30;;;;;;;10.47;100.00;99164.69;5134003;27;20277;-75
2023/05/01 02:37:30;;;;;;;3.40;2.33;;;;;;;10.33;100.00;99169.94;5134027;27;20189;-75
2023/05/01 02:39:58;;;;;;;3.63;2.10;;;;;;;10.48;100.00;99171.41;5133640;27;20245;-75
2023/05/01 02:42:28;;;;;;;3.40;2.10;;;;;;;10.49;100.00;99173.03;5134058;27;20215;-75
2023/05/01 02:44:58;;;;;;;5.30;2.57;;;;;;;10.46;100.00;99167.31;5133795;27;20216;-75
2023/05/01 02:47:27;;;;;;;4.23;2.50;;;;;;;10.51;100.00;99175.50;5133474;27;20236;-75
2023/05/01 02:49:54;;;;;;;2.63;1.93;;;;;;;10.48;100.00;99173.16;5133561;27;20216;-75
2023/05/01 02:52:22;;;;;;;5.67;2.27;;;;;;;10.65;100.00;99171.03;5132572;27;20205;-75
2023/05/01 02:54:50;;;;;;;4.07;2.33;;;;;;;10.69;100.00;99183.59;5133722;27;20269;-75
2023/05/01 02:57:19;;;;;;;4.53;2.07;;;;;;;10.71;100.00;99190.25;5133834;27;20201;-75
2023/05/01 02:59:45;;;;;;;3.87;2.10;;;;;;;10.63;100.00;99187.41;5133585;27;20217;-75
2023/05/01 03:02:12;;;;;;;2.87;2.30;;;;;;;10.76;100.00;99195.00;5133646;27;20860;-75
2023/05/01 03:04:39;;;;;;;4.33;2.40;;;;;;;10.81;100.00;99192.94;5133562;27;20235;-75
2023/05/01 03:07:07;;;;;;;4.40;2.67;;;;;;;10.81;100.00;99195.50;5133297;27;20224;-75
2023/05/01 03:09:40;;;;;;;3.10;2.20;;;;;;;10.85;100.00;99194.38;5133584;27;20223;-76
2023/05/01 03:12:07;;;;;;;4.13;2.80;;;;;;;10.82;100.00;99199.69;5133310;27;20228;-75
2023/05/01 03:14:36;;;;;;;5.87;2.90;;;;;;;10.84;100.00;99201.22;5133078;27;20216;-75
2023/05/01 03:17:03;;;;;;;5.60;3.23;;;;;;;10.89;100.00;99195.78;5133200;27;20201;-75
2023/05/01 03:19:30;;;;;;;4.53;2.30;;;;;;;10.84;100.00;99198.66;5133461;27;20220;-75
2023/05/01 03:21:56;;;;;;;3.93;2.47;;;;;;;10.77;100.00;99206.88;5133286;27;20204;-75
2023/05/01 03:24:24;;;;;;;4.87;2.57;;;;;;;10.75;100.00;99209.53;5133064;27;20232;-76
2023/05/01 03:26:51;;;;;;;4.00;2.73;;;;;;;10.70;100.00;99209.03;5132960;27;20200;-76
2023/05/01 03:29:17;;;;;;;4.43;2.77;;;;;;;10.76;100.00;99212.91;5132913;27;20221;-75
2023/05/01 03:31:46;;;;;;;8.47;4.00;;;;;;;10.89;100.00;99216.25;5132961;27;20192;-75
2023/05/01 03:34:12;;;;;;;7.43;3.30;;;;;;;10.95;100.00;99220.09;5132734;27;20228;-76
2023/05/01 03:36:39;;;;;;;8.53;3.60;;;;;;;10.93;100.00;99225.31;5132836;27;20200;-75
2023/05/01 03:39:07;;;;;;;4.93;3.23;;;;;;;10.94;100.00;99226.13;5132711;27;20740;-75
2023/05/01 03:41:34;;;;;;;4.53;2.93;;;;;;;11.00;100.00;99223.97;5132785;27;20208;-75
2023/05/01 03:44:01;;;;;;;4.53;2.70;;;;;;;11.06;100.00;99222.72;5132751;27;20203;-76
2023/05/01 03:46:27;;;;;;;4.50;2.70;;;;;;;11.07;100.00;99225.16;5132522;27;20692;-75
2023/05/01 03:48:56;;;;;;;4.30;3.30;;;;;;;11.14;100.00;99220.41;5132490;27;20236;-75
2023/05/01 03:51:22;;;;;;;7.20;3.43;;;;;;;11.27;100.00;99221.16;5132705;27;20203;-75
2023/05/01 03:53:49;;;;;;;5.13;2.73;;;;;;;11.39;100.00;99228.84;5132705;27;20200;-75
2023/05/01 03:56:16;;;;;;;4.30;2.77;;;;;;;11.34;100.00;99231.75;5132461;27;20197;-75
2023/05/01 03:58:43;;;;;;;4.33;2.47;;;;;;;11.38;100.00;99233.16;5132559;27;20203;-75
2023/05/01 04:01:10;;;;;;;4.47;2.70;;;;;;;11.37;100.00;99238.38;5132587;27;20269;-75
2023/05/01 04:03:37;;;;;;;4.20;2.57;;;;;;;11.37;100.00;99236.63;5131808;27;20204;-75
2023/05/01 04:06:06;;;;;;;4.57;2.63;;;;;;;11.46;100.00;99248.78;5132327;27;20587;-75
2023/05/01 04:08:33;;;;;;;5.43;2.77;;;;;;;11.40;100.00;99246.66;5132327;27;20235;-76
2023/05/01 04:10:59;;;;;;;6.33;2.63;;;;;;;11.41;100.00;99250.88;5132745;27;20217;-75
2023/05/01 04:13:26;;;;;;;6.97;2.60;;;;;;;11.46;100.00;99246.22;5132134;27;20232;-76
2023/05/01 04:15:56;;;;;;;4.67;2.60;;;;;;;11.50;100.00;99252.75;5132275;27;20235;-75
2023/05/01 04:18:23;;;;;;;5.47;3.17;;;;;;;11.62;100.00;99245.91;5132403;27;20277;-75
2023/05/01 04:20:50;;;;;;;8.60;2.93;;;;;;;11.75;100.00;99250.91;5131968;27;20731;-75
2023/05/01 04:23:19;;;;;;;4.47;2.70;;;;;;;11.88;100.00;99256.00;5131961;27;20196;-76
2023/05/01 04:25:46;;;;;;;6.30;3.13;;;;;;;11.96;100.00;99259.59;5131658;27;20212;-75
2023/05/01 04:28:13;;;;;;;3.67;2.43;;;;;;;12.00;100.00;99255.88;5131965;27;20228;-76
2023/05/01 04:30:40;;;;;;;5.23;3.23;;;;;;;12.11;100.00;99267.06;5131652;27;20220;-75
2023/05/01 04:33:10;;;;;;;5.17;3.13;;;;;;;12.22;100.00;99262.75;5131721;27;20204;-75
2023/05/01 04:35:38;;;;;;;3.90;2.47;;;;;;;12.43;100.00;99275.69;5131797;27;20312;-76
2023/05/01 04:38:04;;;;;;;4.70;2.70;;;;;;;12.48;100.00;99274.50;5131799;27;20196;-75
2023/05/01 04:40:33;;;;;;;4.30;2.40;;;;;;;12.69;100.00;99265.16;5131521;27;20224;-75
2023/05/01 04:43:00;;;;;;;5.20;3.00;;;;;;;12.93;100.00;99270.09;5131537;27;20192;-76
2023/05/01 04:45:27;;;;;;;8.60;2.43;;;;;;;13.04;100.00;99272.66;5131620;27;20274;-76
2023/05/01 04:47:53;;;;;;;6.13;3.17;;;;;;;13.17;100.00;99279.38;5131332;27;20232;-75
2023/05/01 04:50:20;;;;;;;3.83;2.57;;;;;;;13.20;100.00;99281.69;5131586;27;20220;-76
2023/05/01 04:52:47;;;;;;;4.53;2.50;;;;;;;13.42;100.00;99283.38;5131336;27;20207;-75
2023/05/01 04:55:14;;;;;;;4.90;3.17;;;;;;;13.64;100.00;99290.16;5131420;27;20229;-76
2023/05/01 04:57:42;;;;;;;4.97;2.23;;;;;;;13.84;100.00;99291.09;5131333;27;20200;-76
2023/05/01 05:00:10;;;;;;;4.63;2.50;;;;;;;13.96;100.00;99279.78;5131256;27;20217;-76
2023/05/01 05:02:36;;;;;;;5.13;2.37;;;;;;;14.01;100.00;99291.31;5131171;27;20664;-75
2023/05/01 05:05:03;;;;;;;4.33;2.60;;;;;;;14.05;100.00;99294.47;5131499;27;20232;-75
2023/05/01 05:07:30;;;;;;;4.43;2.60;;;;;;;14.26;100.00;99302.94;5130933;27;20641;-76
2023/05/01 05:09:57;;;;;;;3.33;2.40;;;;;;;14.40;100.00;99294.06;5130946;27;20215;-75
2023/05/01 05:12:24;;;;;;;3.23;2.53;;;;;;;14.71;100.00;99300.00;5130880;27;20204;-76
2023/05/01 05:14:52;;;;;;;6.03;2.80;;;;;;;15.05;100.00;99315.09;5130629;27;20746;-76
2023/05/01 05:17:19;;;;;;;8.10;3.90;;;;;;;15.12;100.00;99305.88;5130456;27;20672;-76
2023/05/01 05:19:45;;;;;;;5.10;3.03;;;;;;;15.25;100.00;99305.63;5130922;27;20216;-76
2023/05/01 05:22:12;;;;;;;7.43;3.00;;;;;;;15.58;100.00;99313.88;5130901;27;20200;-76
2023/05/01 05:24:39;;;;;;;3.97;2.97;;;;;;;15.86;100.00;99317.41;5131026;27;20287;-76
2023/05/01 05:27:06;;;;;;;7.00;3.07;;;;;;;16.02;100.00;99320.22;5130755;27;20196;-75
2023/05/01 05:29:33;;;;;;;3.33;2.13;;;;;;;16.06;100.00;99321.56;5131247;27;20247;-76
2023/05/01 05:32:02;;;;;;;4.57;2.83;;;;;;;16.20;100.00;99327.22;5131025;28;20200;-76
2023/05/01 05:34:29;;;;;;;3.97;2.60;;;;;;;16.11;97.98;99328.06;5130935;28;20220;-76
2023/05/01 05:36:56;;;;;;;4.67;1.93;;;;;;;16.21;99.57;99332.25;5130752;28;20210;-76
2023/05/01 05:39:23;;;;;;;6.20;2.37;;;;;;;16.60;99.67;99333.84;5130745;28;20628;-75
2023/05/01 05:41:52;;;;;;;3.90;2.40;;;;;;;16.73;93.76;99344.69;5130762;28;20201;-76
2023/05/01 05:44:19;;;;;;;5.07;2.70;;;;;;;16.84;97.94;99341.94;5130658;27;20300;-76
2023/05/01 05:46:46;;;;;;;4.07;2.47;;;;;;;17.07;99.20;99336.34;5130768;27;20291;-76
2023/05/01 05:49:14;;;;;;;4.40;3.00;;;;;;;16.71;94.52;99346.59;5130481;28;20240;-75
2023/05/01 05:51:41;;;;;;;3.43;2.60;;;;;;;16.85;93.88;99346.13;5130544;28;20200;-77
2023/05/01 05:54:08;;;;;;;3.57;2.50;;;;;;;17.03;94.66;99340.19;5135647;28;20198;-77
2023/05/01 05:56:35;;;;;;;3.53;2.50;;;;;;;16.90;96.04;99345.69;5137377;28;20202;-79
2023/05/01 05:59:03;;;;;;;5.00;3.03;;;;;;;16.95;93.45;99354.63;5138148;27;20216;-79
2023/05/01 06:01:31;;;;;;;3.37;2.57;;;;;;;17.42;90.83;99361.38;5135536;28;20204;-79
2023/05/01 06:03:58;;;;;;;4.97;2.90;;;;;;;17.65;91.12;99361.75;5135466;28;20205;-82
2023/05/01 06:06:26;;;;;;;4.67;2.23;;;;;;;17.75;86.60;99367.66;5135244;27;20204;-79
2023/05/01 06:08:53;;;;;;;3.13;2.30;;;;;;;17.94;88.16;99365.88;5134160;28;20793;-79
2023/05/01 06:11:21;;;;;;;3.43;2.40;;;;;;;18.14;85.44;99372.47;5134468;28;20629;-79
2023/05/01 06:13:48;;;;;;;4.10;2.87;;;;;;;18.46;81.41;99376.22;5133517;28;20204;-76
2023/05/01 06:16:15;;;;;;;3.77;2.30;;;;;;;18.93;79.50;99378.38;5132659;28;20216;-79
2023/05/01 06:18:41;;;;;;;3.50;2.30;;;;;;;18.72;74.75;99382.16;5132613;27;20200;-78
2023/05/01 06:21:08;;;;;;;2.83;1.97;;;;;;;19.06;75.50;99383.13;5132293;28;20228;-78
2023/05/01 06:23:36;;;;;;;3.90;2.53;;;;;;;18.95;71.97;99384.22;5132402;28;20555;-79
2023/05/01 06:26:03;;;;;;;3.53;2.30;;;;;;;19.42;72.09;99383.66;5132288;28;20239;-79
2023/05/01 06:28:31;;;;;;;3.20;2.27;;;;;;;19.12;73.36;99382.50;5136983;27;20281;-79
2023/05/01 06:30:58;;;;;;;3.97;2.60;;;;;;;19.30;71.66;99379.75;5141611;27;20290;-79
2023/05/01 06:33:25;;;;;;;2.70;2.20;;;;;;;18.81;69.64;99384.81;5140427;27;20196;-79
2023/05/01 06:35:53;;;;;;;2.70;2.00;;;;;;;19.29;77.21;99383.34;5136584;27;20219;-79
2023/05/01 06:38:20;;;;;;;3.27;2.37;;;;;;;18.70;67.06;99389.28;5137010;27;20190;-78
2023/05/01 06:40:49;;;;;;;3.83;2.60;;;;;;;18.50;71.67;99387.88;5135949;27;20276;-79
2023/05/01 06:43:15;;;;;;;2.93;2.40;;;;;;;18.99;72.27;99394.13;5136773;27;20193;-79
2023/05/01 06:45:42;;;;;;;4.10;2.40;;;;;;;19.47;70.82;99391.78;5136199;27;20716;-79
2023/05/01 06:48:09;;;;;;;3.13;2.17;;;;;;;18.76;69.23;99398.22;5135680;27;20278;-78
2023/05/01 06:50:36;;;;;;;4.23;2.27;;;;;;;18.74;68.39;99406.16;5136138;27;20667;-79
2023/05/01 06:53:03;;;;;;;2.40;2.17;;;;;;;19.50;68.66;99412.22;5135671;27;20200;-79
2023/05/01 06:55:30;;;;;;;3.37;2.33;;;;;;;20.29;69.66;99402.16;5135720;27;20223;-77
2023/05/01 06:57:58;;;;;;;3.00;2.13;;;;;;;20.78;67.15;99412.44;5135434;27;20679;-77
2023/05/01 07:00:25;;;;;;;2.63;2.00;;;;;;;20.80;61.46;99411.28;5134900;27;20238;-77
2023/05/01 07:02:52;;;;;;;3.20;2.37;;;;;;;21.11;63.62;99414.88;5135282;27;20674;-77
2023/05/01 07:05:19;;;;;;;2.50;1.90;;;;;;;21.64;61.67;99413.25;5135098;27;20702;-77
2023/05/01 07:07:46;;;;;;;3.40;2.40;;;;;;;21.95;61.53;99425.38;5135053;27;20473;-77
2023/05/01 07:10:12;;;;;;;2.27;1.90;;;;;;;22.18;57.58;99426.19;5136185;27;20395;-77
2023/05/01 07:12:39;;;;;;;2.83;2.10;;;;;;;22.44;56.57;99430.16;5136222;27;20207;-77
2023/05/01 07:15:08;;;;;;;3.00;2.13;;;;;;;22.08;55.15;99433.41;5135108;27;20224;-77
2023/05/01 07:17:35;;;;;;;2.57;2.07;;;;;;;22.39;57.90;99438.50;5136104;27;20263;-77
2023/05/01 07:20:03;;;;;;;4.50;2.42;;;;;;;22.85;57.45;99442.75;5136055;27;20224;-78
2023/05/01 07:22:30;;;;;;;4.07;2.00;;;;;;;22.86;58.19;99441.75;5134534;27;20199;-77
2023/05/01 07:24:59;;;;;;;3.10;2.00;;;;;;;21.88;54.95;99454.72;5155272;27;20212;-77
2023/05/01 07:27:27;;;;;;;3.47;2.33;;;;;;;21.54;59.04;99452.53;5155005;27;20200;-77
2023/05/01 07:29:55;;;;;;;3.30;2.28;;;;;;;21.79;56.58;99458.38;5154318;27;20297;-78
2023/05/01 07:32:24;;;;;;;2.57;2.10;;;;;;;22.04;57.30;99458.97;5155282;27;20212;-77
2023/05/01 07:34:50;;;;;;;3.70;1.87;;;;;;;22.24;56.43;99461.94;5156596;27;20310;-78
2023/05/01 07:37:17;;;;;;;2.40;2.20;;;;;;;22.00;60.08;99462.13;5155481;27;20377;-78
2023/05/01 07:39:44;;;;;;;2.63;2.40;;;;;;;22.29;57.38;99472.63;5153750;27;20228;-77
2023/05/01 07:42:11;;;;;;;2.33;1.83;;;;;;;22.43;55.36;99467.63;5153530;27;20674;-77
2023/05/01 07:44:38;;;;;;;2.97;2.00;;;;;;;22.42;53.16;99468.59;5153107;27;20254;-77
2023/05/01 07:47:07;;;;;;;2.40;2.20;;;;;;;22.89;55.79;99475.28;5153758;27;20251;-77
2023/05/01 07:49:37;;;;;;;2.60;2.10;;;;;;;23.25;55.82;99476.16;5153547;27;20234;-77
2023/05/01 07:52:06;;;;;;;6.93;2.67;;;;;;;23.58;53.53;99475.69;5154222;27;20612;-77
2023/05/01 07:54:33;;;;;;;3.05;2.17;;;;;;;23.64;53.54;99485.41;5153615;27;20635;-77
2023/05/01 07:57:00;;;;;;;3.45;2.53;;;;;;;23.04;53.21;99479.53;5154877;27;20196;-79
2023/05/01 07:59:27;;;;;;;2.30;1.98;;;;;;;23.11;53.89;99495.25;5154750;27;20296;-78
2023/05/01 08:01:54;;;;;;;3.85;2.25;;;;;;;22.54;52.88;99495.84;5154369;27;20466;-79
2023/05/01 08:04:21;;;;;;;2.67;2.00;;;;;;;21.86;53.77;99503.53;5154022;27;20224;-79
2023/05/01 08:06:50;;;;;;;3.22;2.20;;;;;;;21.96;56.21;99494.69;5154380;27;20693;-78
2023/05/01 08:09:17;;;;;;;3.17;2.17;;;;;;;22.30;57.87;99500.28;5155710;27;20228;-79
2023/05/01 08:11:43;;;;;;;2.70;2.10;;;;;;;22.98;56.35;99500.28;5156135;27;20228;-79
2023/05/01 08:14:10;;;;;;;3.78;2.55;;;;;;;23.05;56.12;99495.97;5155625;27;20199;-78
2023/05/01 08:16:37;;;;;;;3.92;2.92;;;;;;;23.40;57.41;99499.59;5155614;27;20675;-78
2023/05/01 08:19:04;;;;;;;3.80;2.70;;;;;;;23.26;56.72;99503.84;5153588;27;20203;-78
2023/05/01 08:21:31;;;;;;;4.00;2.80;;;;;;;23.31;55.67;99505.94;5156195;27;20202;-78
2023/05/01 08:23:59;;;;;;;4.35;2.38;;;;;;;23.28;58.51;99501.88;5155414;27;20192;-78
2023/05/01 08:26:26;;;;;;;3.88;2.78;;;;;;;23.01;56.14;99505.16;5156286;27;20625;-78
2023/05/01 08:28:53;;;;;;;3.25;2.42;;;;;;;22.66;58.72;99501.44;5155599;27;20501;-77
2023/05/01 08:31:20;;;;;;;6.15;3.00;;;;;;;22.15;58.10;99509.84;5153831;27;20602;-77
2023/05/01 08:33:47;;;;;;;3.45;2.53;;;;;;;22.64;60.26;99504.22;5155083;27;20196;-77
2023/05/01 08:36:13;;;;;;;4.28;2.80;;;;;;;22.62;58.92;99514.00;5155075;27;20647;-77
2023/05/01 08:38:40;;;;;;;3.88;2.65;;;;;;;22.64;61.10;99509.44;5134857;27;20201;-77
2023/05/01 08:41:09;;;;;;;4.05;2.90;;;;;;;22.62;60.84;99506.19;5132622;27;20296;-77
2023/05/01 08:43:36;;;;;;;5.80;2.80;;;;;;;22.65;61.43;99500.63;5138078;27;20694;-77
2023/05/01 08:46:07;;;;;;;5.10;2.95;;;;;;;22.75;60.08;99498.56;5132891;27;20221;-77
2023/05/01 08:48:36;;;;;;;5.38;3.03;;;;;;;23.43;58.15;99514.09;5132467;27;20257;-77
2023/05/01 08:51:05;;;;;;;3.72;2.60;;;;;;;23.65;57.66;99513.13;5142023;27;20235;-77
2023/05/01 08:53:33;;;;;;;5.65;3.78;;;;;;;23.63;55.15;99509.91;5129833;27;20197;-76
2023/05/01 08:56:00;;;;;;;12.80;5.70;;;;;;;23.92;55.75;99511.63;5130640;27;20659;-77
2023/05/01 08:58:29;;;;;;;4.15;2.53;;;;;;;23.49;55.94;99497.69;5132070;27;20200;-77
2023/05/01 09:00:57;;;;;;;3.47;2.78;;;;;;;23.55;55.61;99503.97;5141239;27;20216;-77
2023/05/01 09:03:24;;;;;;;7.47;3.55;;;;;;;23.66;56.49;99504.31;5151951;27;20212;-77
2023/05/01 09:05:53;;;;;;;8.93;4.63;;;;;;;23.48;56.94;99506.53;5152371;27;20634;-77
2023/05/01 09:08:19;;;;;;;9.73;3.95;;;;;;;23.33;56.64;99497.91;5151076;27;20215;-77
2023/05/01 09:10:49;;;;;;;6.82;3.20;;;;;;;23.44;54.37;99507.88;5143537;27;20295;-77
2023/05/01 09:13:16;;;;;;;3.83;2.65;;;;;;;22.86;57.20;99496.50;5152386;27;20196;-77
2023/05/01 09:15:44;;;;;;;2.92;2.13;;;;;;;23.11;55.34;99495.25;5152198;27;20219;-77
2023/05/01 09:18:12;;;;;;;2.70;2.28;;;;;;;23.46;53.29;99503.28;5152810;27;20215;-77
2023/05/01 09:20:39;;;;;;;3.42;2.40;;;;;;;23.88;52.66;99512.16;5150364;27;20779;-77
2023/05/01 09:23:07;;;;;;;3.85;2.42;;;;;;;24.12;51.35;99514.41;5153202;27;20204;-79
2023/05/01 09:25:34;;;;;;;3.42;2.50;;;;;;;23.62;52.54;99512.69;5153199;27;20288;-77
2023/05/01 09:28:04;;;;;;;2.53;2.22;;;;;;;23.66;53.34;99514.75;5151532;27;20204;-77
2023/05/01 09:30:32;;;;;;;3.75;2.67;;;;;;;23.92;51.34;99516.03;5150280;27;20238;-77
2023/05/01 09:33:11;;;;;;;3.40;2.38;;;;;;;23.90;52.27;99504.97;5150911;27;20870;-77
2023/05/01 09:35:52;;;;;;;3.95;2.60;;;;;;;24.43;52.66;99505.41;5149822;27;20231;-76
2023/05/01 09:38:21;;;;;;;5.05;2.80;;;;;;;24.63;51.94;99508.97;5149882;27;20200;-77
2023/05/01 09:40:48;;;;;;;28.73;11.02;;;;;;;24.51;51.38;99502.66;5151828;27;20220;-79
2023/05/01 09:43:23;;;;;;;3.25;2.22;;;;;;;24.41;53.53;99502.19;5150826;27;20566;-79
2023/05/01 09:46:00;;;;;;;180.13;48.83;;;;;;;24.97;48.98;99496.91;5152510;27;20287;-80
2023/05/01 09:48:28;;;;;;;7.85;2.97;;;;;;;24.94;49.10;99497.28;5154663;27;20199;-80
2023/05/01 09:50:55;;;;;;;40.50;14.13;;;;;;;24.82;49.45;99496.22;5152324;27;20433;-80
2023/05/01 09:53:37;;;;;;;146.90;39.40;;;;;;;24.71;48.62;99500.19;5152355;27;20315;-79
2023/05/01 09:56:04;;;;;;;3.38;2.22;;;;;;;24.50;48.48;99501.06;5152154;27;20302;-79
2023/05/01 09:58:31;;;;;;;2.72;2.20;;;;;;;23.87;47.22;99502.72;5151817;27;20635;-79
2023/05/01 10:00:58;;;;;;;2.53;1.90;;;;;;;23.55;50.85;99502.19;5133251;27;20220;-79
2023/05/01 10:03:25;;;;;;;2.80;2.38;;;;;;;24.20;47.38;99510.84;5157883;27;20214;-78
2023/05/01 10:05:55;;;;;;;2.63;2.08;;;;;;;23.93;49.29;99507.19;5159697;27;20208;-78
2023/05/01 10:08:23;;;;;;;2.22;1.95;;;;;;;24.04;49.47;99505.91;5159156;27;20668;-78
2023/05/01 10:11:03;;;;;;;3.47;2.30;;;;;;;24.22;47.64;99493.19;5159729;27;20292;-80
2023/05/01 10:13:30;;;;;;;3.72;2.05;;;;;;;24.26;47.16;99498.81;5159363;27;20207;-80
2023/05/01 10:16:00;;;;;;;2.40;1.92;;;;;;;24.34;47.07;99496.06;5159191;27;20220;-80
2023/05/01 10:18:29;;;;;;;2.83;2.40;;;;;;;24.04;48.63;99506.69;5157890;27;20716;-79
2023/05/01 10:20:58;;;;;;;3.85;2.17;;;;;;;24.12;47.57;99493.50;5158532;27;20216;-79
2023/05/01 10:23:25;;;;;;;2.85;2.17;;;;;;;24.15;46.80;99495.75;5157536;27;20192;-80
2023/05/01 10:25:53;;;;;;;2.25;1.90;;;;;;;23.53;47.63;99498.94;5156638;27;20228;-80
2023/05/01 10:28:21;;;;;;;3.45;2.13;;;;;;;23.66;47.28;99496.47;5156188;27;20204;-80
2023/05/01 10:30:49;;;;;;;3.92;2.47;;;;;;;24.06;48.14;99494.28;5156129;27;20330;-80
2023/05/01 10:33:16;;;;;;;3.83;2.40;;;;;;;24.10;47.51;99490.28;5156048;27;20717;-80
2023/05/01 10:35:47;;;;;;;2.88;2.03;;;;;;;23.92;47.39;99495.94;5156006;27;20230;-80
2023/05/01 10:38:22;;;;;;;2.60;2.00;;;;;;;23.59;48.58;99495.59;5156726;27;20196;-79
2023/05/01 10:40:50;;;;;;;3.03;2.00;;;;;;;24.48;46.74;99487.38;5156246;27;20211;-79
2023/05/01 10:43:19;;;;;;;3.22;1.88;;;;;;;24.71;48.54;99491.53;5156877;27;20292;-79
2023/05/01 10:45:48;;;;;;;2.55;2.03;;;;;;;24.23;47.70;99494.81;5155836;27;20793;-77
2023/05/01 10:48:48;;;;;;;2.97;2.25;;;;;;;23.37;44.73;99493.94;5154986;27;20261;-76
2023/05/01 10:51:19;;;;;;;2.58;2.00;;;;;;;23.83;44.89;99498.88;5154296;27;20288;-77
2023/05/01 10:53:48;;;;;;;2.78;1.80;;;;;;;24.29;43.57;99490.59;5154638;27;20208;-77
2023/05/01 10:56:41;;;;;;;2.03;1.75;;;;;;;24.43;44.79;99484.50;5154429;27;20220;-76
2023/05/01 10:59:09;;;;;;;1.95;1.75;;;;;;;24.29;43.56;99485.38;5154004;27;20196;-76
2023/05/01 11:01:38;;;;;;;3.38;2.28;;;;;;;24.20;44.17;99494.34;5154046;27;20196;-76
2023/05/01 11:04:07;;;;;;;2.53;1.90;;;;;;;24.23;46.76;99488.75;5153023;27;20292;-77
2023/05/01 11:06:35;;;;;;;2.22;1.77;;;;;;;24.22;44.94;99487.16;5153330;27;20220;-77
2023/05/01 11:09:36;;;;;;;1.75;1.50;;;;;;;23.90;44.71;99484.06;5153949;27;20200;-77
2023/05/01 11:12:03;;;;;;;2.75;1.90;;;;;;;23.91;45.54;99486.50;5153151;27;20207;-77
2023/05/01 11:15:03;;;;;;;2.20;1.67;;;;;;;24.55;44.26;99483.00;5152109;27;20840;-77
2023/05/01 11:17:45;;;;;;;3.67;2.00;;;;;;;24.72;43.82;99482.69;5153998;27;20207;-76
2023/05/01 11:20:13;;;;;;;2.92;2.05;;;;;;;24.88;44.32;99481.56;5153721;27;20237;-77
2023/05/01 11:22:44;;;;;;;2.15;1.70;;;;;;;24.60;43.18;99485.81;5153807;27;20223;-77
2023/05/01 11:25:20;;;;;;;2.60;1.52;;;;;;;24.59;43.12;99479.00;5153586;27;20237;-77
2023/05/01 11:27:48;;;;;;;3.47;1.70;;;;;;;24.73;43.52;99473.84;5153898;27;20256;-77
2023/05/01 11:30:15;;;;;;;2.58;1.80;;;;;;;24.85;41.77;99480.94;5153742;27;20767;-77
2023/05/01 11:32:44;;;;;;;3.30;1.75;;;;;;;24.60;43.45;99485.03;5153897;27;20217;-77
2023/05/01 11:35:17;;;;;;;2.13;1.80;;;;;;;24.35;43.76;99487.25;5153407;27;20247;-77
2023/05/01 11:37:45;;;;;;;1.67;1.45;;;;;;;24.99;41.98;99489.66;5153549;27;20651;-77